Time;durP1;ratioP1;P1;durP2;ratioP2;P2;SDS_P1;SDS_P2;PMS_P1;PMS_P2;Temp;Humidity;BMP_temperature;BMP_pressure;BME280_temperature;BME280_humidity;BME280_pressure;Samples;Min_cycle;Max_cycle;Signal;HPM_P1;HPM_P2
2022/10/09 00:01:10;;;;;;;8.63;3.25;;;10.90;74.50;;;;;;5001376;28;20033;-68
2022/10/09 00:03:38;;;;;;;5.80;2.90;;;10.90;74.60;;;;;;5005484;28;20029;-68
2022/10/09 00:06:04;;;;;;;5.75;3.15;;;10.90;74.70;;;;;;5006923;28;20061;-68
2022/10/09 00:08:30;;;;;;;5.18;3.10;;;10.90;74.70;;;;;;5006477;28;20034;-68
2022/10/09 00:10:56;;;;;;;3.92;2.85;;;10.90;74.60;;;;;;5000957;28;20044;-68
2022/10/09 00:13:22;;;;;;;6.40;3.13;;;10.90;75.10;;;;;;5001202;28;20041;-68
2022/10/09 00:15:47;;;;;;;6.80;3.03;;;10.90;74.30;;;;;;5004730;28;20070;-69
2022/10/09 00:18:16;;;;;;;6.88;3.28;;;10.90;74.40;;;;;;5002808;28;20053;-67
2022/10/09 00:20:43;;;;;;;6.18;3.10;;;10.80;74.30;;;;;;5001361;28;20676;-68
2022/10/09 00:23:10;;;;;;;7.05;3.10;;;10.90;74.30;;;;;;5006160;28;20038;-68
2022/10/09 00:25:36;;;;;;;7.00;3.20;;;10.80;74.30;;;;;;5004199;28;20493;-69
2022/10/09 00:28:03;;;;;;;4.88;3.10;;;10.80;74.30;;;;;;5011891;28;20041;-68
2022/10/09 00:30:29;;;;;;;5.65;3.03;;;10.70;74.40;;;;;;5011674;28;20030;-68
2022/10/09 00:32:54;;;;;;;5.63;3.28;;;10.70;74.50;;;;;;5011173;28;20712;-68
2022/10/09 00:35:21;;;;;;;6.20;2.83;;;10.60;74.60;;;;;;5004774;28;20117;-68
2022/10/09 00:37:47;;;;;;;4.45;2.88;;;10.60;74.70;;;;;;5001339;28;20565;-68
2022/10/09 00:40:13;;;;;;;5.47;3.03;;;10.60;74.80;;;;;;5003589;28;20030;-68
2022/10/09 00:42:39;;;;;;;4.70;2.92;;;10.60;74.70;;;;;;5010471;28;20061;-68
2022/10/09 00:45:05;;;;;;;6.65;2.95;;;10.60;74.70;;;;;;5003964;28;20060;-68
2022/10/09 00:47:47;;;;;;;5.28;3.08;;;10.60;74.70;;;;;;5006849;28;20031;-68
2022/10/09 00:50:20;;;;;;;4.57;2.90;;;10.60;74.70;;;;;;5003548;28;20028;-68
2022/10/09 00:52:53;;;;;;;4.63;3.08;;;10.60;74.60;;;;;;5007210;28;20033;-68
2022/10/09 00:55:20;;;;;;;5.70;3.35;;;10.60;74.70;;;;;;4994423;28;20023;-68
2022/10/09 00:57:46;;;;;;;4.70;2.78;;;10.60;74.70;;;;;;5001000;28;20022;-69
2022/10/09 01:00:12;;;;;;;5.57;3.00;;;10.50;74.70;;;;;;5010886;28;20101;-68
2022/10/09 01:02:38;;;;;;;5.78;2.70;;;10.50;74.80;;;;;;5011392;28;20113;-68
2022/10/09 01:05:07;;;;;;;4.90;3.05;;;10.50;74.90;;;;;;5011611;28;20544;-68
2022/10/09 01:07:58;;;;;;;6.38;3.15;;;10.50;74.90;;;;;;5011869;28;20022;-68
2022/10/09 01:10:55;;;;;;;4.53;2.70;;;10.40;75.00;;;;;;5009896;28;20034;-67
2022/10/09 01:13:36;;;;;;;5.53;3.00;;;10.40;74.90;;;;;;5005473;28;20038;-69
2022/10/09 01:16:11;;;;;;;8.38;3.50;;;10.30;74.90;;;;;;5020198;28;20037;-68
2022/10/09 01:18:47;;;;;;;5.00;3.28;;;10.30;75.10;;;;;;5018623;28;20048;-68
2022/10/09 01:21:19;;;;;;;5.10;3.10;;;10.20;75.20;;;;;;5011616;28;20010;-68
2022/10/09 01:24:04;;;;;;;6.32;3.28;;;10.20;75.40;;;;;;5011892;28;20048;-67
2022/10/09 01:26:32;;;;;;;5.30;3.15;;;10.20;75.60;;;;;;5011741;28;20041;-67
2022/10/09 01:29:03;;;;;;;4.53;3.13;;;10.20;75.60;;;;;;5011897;28;20022;-67
2022/10/09 01:31:32;;;;;;;5.90;3.28;;;10.10;75.60;;;;;;5007171;28;20057;-68
2022/10/09 01:33:59;;;;;;;6.47;3.50;;;10.20;75.60;;;;;;5011560;28;20036;-68
2022/10/09 01:36:27;;;;;;;6.93;3.38;;;10.20;75.50;;;;;;5011438;28;20674;-68
2022/10/09 01:38:56;;;;;;;7.55;3.40;;;10.20;75.50;;;;;;5011849;28;20515;-68
2022/10/09 01:41:22;;;;;;;4.82;3.30;;;10.20;75.50;;;;;;5011604;28;20052;-68
2022/10/09 01:43:47;;;;;;;7.20;3.65;;;10.20;75.60;;;;;;5011743;28;20061;-68
2022/10/09 01:46:31;;;;;;;4.68;3.13;;;10.10;75.60;;;;;;5005400;28;20085;-68
2022/10/09 01:49:36;;;;;;;6.53;3.50;;;10.20;75.70;;;;;;5011404;28;20038;-68
2022/10/09 01:52:35;;;;;;;6.18;2.90;;;10.20;75.70;;;;;;5011922;28;20049;-68
2022/10/09 01:55:32;;;;;;;6.25;2.85;;;10.20;75.60;;;;;;5002418;28;20057;-68
2022/10/09 01:58:07;;;;;;;6.40;3.40;;;10.20;75.50;;;;;;5010279;28;20028;-68
2022/10/09 02:00:38;;;;;;;4.18;2.72;;;10.10;75.60;;;;;;5011703;28;20468;-68
2022/10/09 02:03:08;;;;;;;7.18;3.15;;;10.10;76.40;;;;;;5011810;28;20090;-67
2022/10/09 02:05:35;;;;;;;5.40;2.97;;;10.10;75.70;;;;;;5011083;28;20389;-67
2022/10/09 02:08:00;;;;;;;6.50;3.40;;;10.10;75.80;;;;;;5011554;28;20060;-67
2022/10/09 02:10:26;;;;;;;4.93;2.95;;;10.10;75.80;;;;;;5011617;28;20053;-67
2022/10/09 02:12:57;;;;;;;4.68;3.03;;;10.10;76.00;;;;;;5011273;28;20038;-67
2022/10/09 02:15:44;;;;;;;7.03;3.28;;;10.10;76.10;;;;;;5011155;28;20034;-66
2022/10/09 02:18:13;;;;;;;5.95;2.97;;;10.00;76.20;;;;;;4993709;28;20045;-67
2022/10/09 02:20:44;;;;;;;5.35;2.90;;;10.00;76.30;;;;;;5003566;28;20049;-67
2022/10/09 02:23:11;;;;;;;5.03;2.85;;;10.00;76.20;;;;;;5011646;28;20033;-68
2022/10/09 02:25:37;;;;;;;4.45;2.75;;;10.00;76.20;;;;;;5010851;28;20022;-68
2022/10/09 02:28:04;;;;;;;4.07;2.90;;;10.00;76.20;;;;;;5011006;28;20439;-68
2022/10/09 02:30:40;;;;;;;4.45;2.97;;;10.00;76.20;;;;;;5010139;28;20712;-68
2022/10/09 02:33:06;;;;;;;7.15;3.00;;;9.90;76.20;;;;;;4996905;28;20180;-68
2022/10/09 02:35:32;;;;;;;5.85;3.30;;;9.90;76.30;;;;;;4997990;28;20544;-68
2022/10/09 02:37:57;;;;;;;4.30;2.95;;;9.90;76.30;;;;;;5002283;28;20076;-69
2022/10/09 02:40:23;;;;;;;6.95;3.63;;;9.90;76.20;;;;;;5010990;28;20029;-68
2022/10/09 02:42:48;;;;;;;4.30;2.97;;;9.90;76.00;;;;;;5010743;28;20083;-69
2022/10/09 02:45:14;;;;;;;6.07;3.03;;;9.90;76.20;;;;;;5009126;28;20026;-69
2022/10/09 02:47:39;;;;;;;5.45;3.25;;;9.80;76.10;;;;;;5009124;28;20034;-69
2022/10/09 02:50:05;;;;;;;5.68;3.25;;;9.80;76.20;;;;;;5010751;28;20026;-68
2022/10/09 02:52:31;;;;;;;4.82;3.00;;;9.80;76.20;;;;;;5009381;28;20061;-68
2022/10/09 02:54:56;;;;;;;4.72;3.20;;;9.80;77.00;;;;;;5009533;28;20120;-69
2022/10/09 02:57:22;;;;;;;4.60;3.00;;;9.90;76.40;;;;;;5009247;28;20068;-68
2022/10/09 02:59:47;;;;;;;7.03;3.53;;;9.90;76.20;;;;;;5010689;28;20100;-68
2022/10/09 03:02:13;;;;;;;6.82;3.53;;;9.90;76.20;;;;;;5009708;28;20021;-68
2022/10/09 03:04:38;;;;;;;7.25;3.90;;;10.00;76.20;;;;;;5010592;28;20137;-68
2022/10/09 03:07:04;;;;;;;5.80;3.20;;;9.90;76.20;;;;;;5010329;28;20097;-68
2022/10/09 03:09:29;;;;;;;4.82;2.88;;;9.90;76.30;;;;;;5010633;28;20032;-67
2022/10/09 03:11:55;;;;;;;5.70;2.85;;;9.90;76.20;;;;;;5010102;28;20025;-67
2022/10/09 03:14:21;;;;;;;5.55;3.03;;;9.90;76.30;;;;;;5009775;28;20033;-67
2022/10/09 03:16:46;;;;;;;4.80;2.70;;;9.90;76.30;;;;;;5015213;28;20031;-68
2022/10/09 03:19:12;;;;;;;6.13;3.35;;;9.90;76.30;;;;;;4994458;28;20022;-68
2022/10/09 03:21:37;;;;;;;5.40;3.13;;;9.90;76.90;;;;;;5002238;28;20030;-68
2022/10/09 03:24:03;;;;;;;5.25;3.00;;;9.90;76.20;;;;;;5010402;28;20435;-68
2022/10/09 03:26:28;;;;;;;4.88;2.92;;;9.90;76.30;;;;;;5010498;28;20542;-67
2022/10/09 03:28:55;;;;;;;4.55;2.97;;;9.80;76.20;;;;;;5010382;28;20040;-67
2022/10/09 03:31:22;;;;;;;7.28;3.40;;;9.80;76.20;;;;;;5009827;28;20498;-67
2022/10/09 03:33:48;;;;;;;7.47;3.10;;;9.80;76.30;;;;;;5009964;28;20550;-67
2022/10/09 03:36:14;;;;;;;5.55;2.80;;;9.80;76.30;;;;;;5010013;28;20029;-67
2022/10/09 03:38:39;;;;;;;5.78;3.13;;;9.70;76.30;;;;;;5009975;28;20387;-68
2022/10/09 03:41:06;;;;;;;5.95;3.38;;;9.70;76.40;;;;;;5010030;28;20049;-67
2022/10/09 03:43:32;;;;;;;5.40;3.50;;;9.70;76.50;;;;;;5008536;28;20030;-68
2022/10/09 03:45:58;;;;;;;6.30;3.50;;;9.70;76.50;;;;;;5009110;28;20494;-68
2022/10/09 03:48:24;;;;;;;7.60;3.50;;;9.70;76.40;;;;;;5009494;28;20117;-68
2022/10/09 03:50:50;;;;;;;5.35;3.47;;;9.70;76.40;;;;;;5010108;28;20030;-69
2022/10/09 03:53:16;;;;;;;7.50;3.40;;;9.70;76.30;;;;;;5009946;28;20022;-69
2022/10/09 03:55:42;;;;;;;5.50;3.25;;;9.70;76.20;;;;;;5009795;28;20030;-68
2022/10/09 03:58:09;;;;;;;4.35;3.13;;;9.70;76.20;;;;;;5013333;28;20496;-68
2022/10/09 04:00:35;;;;;;;5.38;3.42;;;9.60;76.20;;;;;;5013755;28;20026;-68
2022/10/09 04:03:01;;;;;;;5.65;2.80;;;9.60;76.30;;;;;;5013932;28;20022;-67
2022/10/09 04:05:28;;;;;;;5.05;3.13;;;9.50;76.20;;;;;;5013870;28;20504;-67
2022/10/09 04:07:54;;;;;;;4.03;2.90;;;9.50;76.40;;;;;;5012923;28;20123;-67
2022/10/09 04:10:19;;;;;;;5.15;3.00;;;9.40;76.50;;;;;;5013735;28;20523;-67
2022/10/09 04:12:45;;;;;;;5.65;2.95;;;9.30;76.60;;;;;;5013179;28;20050;-67
2022/10/09 04:15:10;;;;;;;6.07;3.15;;;9.30;77.40;;;;;;5012791;28;20131;-67
2022/10/09 04:17:36;;;;;;;5.53;3.45;;;9.30;76.70;;;;;;5013281;28;20050;-67
2022/10/09 04:20:02;;;;;;;5.78;3.38;;;9.40;76.80;;;;;;5013560;28;20025;-68
2022/10/09 04:22:27;;;;;;;5.45;3.15;;;9.30;76.60;;;;;;5013513;28;20034;-67
2022/10/09 04:24:53;;;;;;;6.00;3.58;;;9.30;76.70;;;;;;4998163;28;20492;-67
2022/10/09 04:27:19;;;;;;;6.97;3.45;;;9.30;76.50;;;;;;5013017;28;20044;-68
2022/10/09 04:29:44;;;;;;;6.70;3.42;;;9.30;76.50;;;;;;5013199;28;20022;-68
2022/10/09 04:32:10;;;;;;;6.03;3.20;;;9.30;76.60;;;;;;5011691;28;20034;-69
2022/10/09 04:34:35;;;;;;;4.78;3.05;;;9.30;76.70;;;;;;5013786;28;20076;-68
2022/10/09 04:37:01;;;;;;;3.80;2.75;;;9.30;76.60;;;;;;5012709;28;20026;-67
2022/10/09 04:39:26;;;;;;;3.95;3.13;;;9.30;76.60;;;;;;5013440;28;20041;-68
2022/10/09 04:41:52;;;;;;;5.63;2.90;;;9.30;76.60;;;;;;5012821;28;20105;-67
2022/10/09 04:44:18;;;;;;;5.63;3.15;;;9.30;76.40;;;;;;5007520;28;20027;-67
2022/10/09 04:46:43;;;;;;;4.57;2.90;;;9.30;76.30;;;;;;5013124;28;20054;-68
2022/10/09 04:49:13;;;;;;;5.55;2.95;;;9.20;76.40;;;;;;5011697;28;20495;-68
2022/10/09 04:51:38;;;;;;;6.20;3.35;;;9.20;76.60;;;;;;5012903;28;20041;-68
2022/10/09 04:54:04;;;;;;;5.72;3.03;;;9.20;76.70;;;;;;5012851;28;20064;-68
2022/10/09 04:56:29;;;;;;;6.20;3.35;;;9.20;76.70;;;;;;5011249;28;20037;-68
2022/10/09 04:58:55;;;;;;;7.13;3.28;;;9.30;76.80;;;;;;5012389;28;20075;-68
2022/10/09 05:01:23;;;;;;;4.97;3.28;;;9.30;76.70;;;;;;5012373;28;20033;-68
2022/10/09 05:03:49;;;;;;;5.65;3.47;;;9.20;76.70;;;;;;5013043;28;20079;-68
2022/10/09 05:06:16;;;;;;;6.90;3.65;;;9.30;76.70;;;;;;5012139;28;20026;-68
2022/10/09 05:08:42;;;;;;;6.40;3.70;;;9.30;76.70;;;;;;5012390;28;20172;-68
2022/10/09 05:11:11;;;;;;;8.68;3.75;;;9.30;76.70;;;;;;5012610;28;20036;-68
2022/10/09 05:13:39;;;;;;;5.68;4.03;;;9.30;76.80;;;;;;5012004;28;20025;-67
2022/10/09 05:16:08;;;;;;;4.80;3.45;;;9.30;77.10;;;;;;5017881;28;20033;-67
2022/10/09 05:18:34;;;;;;;5.22;3.40;;;9.30;77.30;;;;;;5009480;28;20638;-68
2022/10/09 05:21:03;;;;;;;6.45;3.50;;;9.30;77.20;;;;;;5012410;28;20052;-68
2022/10/09 05:23:31;;;;;;;5.40;3.35;;;9.30;77.30;;;;;;5011411;28;20030;-68
2022/10/09 05:25:59;;;;;;;5.95;3.60;;;9.30;77.30;;;;;;5010846;28;20041;-68
2022/10/09 05:28:25;;;;;;;7.35;3.85;;;9.30;77.40;;;;;;5011971;28;20041;-68
2022/10/09 05:30:51;;;;;;;6.57;3.55;;;9.30;77.40;;;;;;5010208;28;20026;-68
2022/10/09 05:33:16;;;;;;;6.65;3.90;;;9.30;77.40;;;;;;5005493;28;20389;-68
2022/10/09 05:35:58;;;;;;;7.47;4.30;;;9.30;77.50;;;;;;5006717;28;20112;-68
2022/10/09 05:38:25;;;;;;;6.22;3.92;;;9.20;77.70;;;;;;5008062;28;20045;-68
2022/10/09 05:40:56;;;;;;;7.25;4.07;;;9.20;77.80;;;;;;5002645;28;20045;-68
2022/10/09 05:43:28;;;;;;;6.15;3.85;;;9.20;78.00;;;;;;5012107;28;20448;-67
2022/10/09 05:45:54;;;;;;;5.80;3.63;;;9.20;78.00;;;;;;5012036;28;20567;-67
2022/10/09 05:48:20;;;;;;;9.25;3.83;;;9.20;77.90;;;;;;5012110;28;20038;-68
2022/10/09 05:50:45;;;;;;;6.80;3.90;;;9.20;77.90;;;;;;5011758;28;20026;-68
2022/10/09 05:53:11;;;;;;;6.22;3.80;;;9.20;77.90;;;;;;5011639;28;20026;-68
2022/10/09 05:55:37;;;;;;;5.38;3.50;;;9.20;77.80;;;;;;5011732;28;20069;-68
2022/10/09 05:58:03;;;;;;;6.35;4.13;;;9.20;77.90;;;;;;5010904;28;20028;-67
2022/10/09 06:00:29;;;;;;;7.40;4.22;;;9.20;78.00;;;;;;5011489;28;20049;-68
2022/10/09 06:02:54;;;;;;;9.68;4.50;;;9.20;78.00;;;;;;5011709;28;20027;-68
2022/10/09 06:05:20;;;;;;;8.65;4.32;;;9.20;78.00;;;;;;5011569;28;20030;-68
2022/10/09 06:07:46;;;;;;;6.65;3.80;;;9.20;78.10;;;;;;5011225;28;20488;-67
2022/10/09 06:10:12;;;;;;;7.43;4.22;;;9.20;77.90;;;;;;5013598;28;20030;-67
2022/10/09 06:12:38;;;;;;;6.78;4.00;;;9.20;78.00;;;;;;5011302;28;20068;-68
2022/10/09 06:15:04;;;;;;;7.85;4.53;;;9.20;78.20;;;;;;5009519;28;20057;-68
2022/10/09 06:17:30;;;;;;;8.93;5.13;;;9.20;78.20;;;;;;5009943;28;20026;-69
2022/10/09 06:19:56;;;;;;;6.85;4.90;;;9.20;78.30;;;;;;5008255;28;20018;-67
2022/10/09 06:22:22;;;;;;;8.40;5.75;;;9.10;78.40;;;;;;5009625;28;20452;-66
2022/10/09 06:24:47;;;;;;;9.93;5.85;;;9.20;78.50;;;;;;5011082;28;20026;-67
2022/10/09 06:27:13;;;;;;;6.78;4.68;;;9.20;78.60;;;;;;5011600;28;20393;-67
2022/10/09 06:29:38;;;;;;;7.35;4.72;;;9.20;78.60;;;;;;5010575;28;20116;-67
2022/10/09 06:32:04;;;;;;;6.07;4.22;;;9.30;78.50;;;;;;5011083;28;20064;-68
2022/10/09 06:34:30;;;;;;;7.63;4.10;;;9.40;78.40;;;;;;5010659;28;20041;-67
2022/10/09 06:36:55;;;;;;;7.75;4.70;;;9.50;78.20;;;;;;5010475;28;20247;-67
2022/10/09 06:39:21;;;;;;;6.53;3.63;;;9.50;78.10;;;;;;5011124;28;20030;-67
2022/10/09 06:41:47;;;;;;;5.40;3.35;;;9.50;77.90;;;;;;5011251;28;20029;-67
2022/10/09 06:44:15;;;;;;;7.68;3.80;;;9.60;77.80;;;;;;5010523;28;20084;-67
2022/10/09 06:46:41;;;;;;;6.75;4.20;;;9.60;77.80;;;;;;5010001;28;20101;-68
2022/10/09 06:49:09;;;;;;;8.10;4.43;;;9.60;78.20;;;;;;5006528;28;20034;-67
2022/10/09 06:51:35;;;;;;;10.15;5.97;;;9.70;78.30;;;;;;5008502;28;20484;-67
2022/10/09 06:54:03;;;;;;;13.10;6.32;;;9.70;78.60;;;;;;5010345;28;20026;-67
2022/10/09 06:56:30;;;;;;;10.80;5.82;;;9.70;79.20;;;;;;5010634;28;20034;-67
2022/10/09 06:58:59;;;;;;;8.82;5.18;;;9.70;79.70;;;;;;5010523;28;20506;-67
2022/10/09 07:01:29;;;;;;;7.10;4.00;;;9.70;79.70;;;;;;5008979;28;20030;-68
2022/10/09 07:04:00;;;;;;;6.20;4.00;;;9.80;79.70;;;;;;5010617;28;20029;-67
2022/10/09 07:06:29;;;;;;;8.18;5.10;;;9.90;79.60;;;;;;5010545;28;20030;-67
2022/10/09 07:09:00;;;;;;;7.43;4.68;;;10.00;79.70;;;;;;5010646;28;20407;-68
2022/10/09 07:11:29;;;;;;;8.98;4.97;;;10.00;79.80;;;;;;5010610;28;20033;-67
2022/10/09 07:13:56;;;;;;;9.45;5.30;;;10.10;79.70;;;;;;5006848;28;20033;-68
2022/10/09 07:16:25;;;;;;;9.45;4.93;;;10.20;79.60;;;;;;5009852;28;20034;-67
2022/10/09 07:18:51;;;;;;;9.05;5.20;;;10.30;79.50;;;;;;5012677;28;20037;-67
2022/10/09 07:21:17;;;;;;;9.30;4.60;;;10.40;79.40;;;;;;5010334;28;20021;-67
2022/10/09 07:23:43;;;;;;;6.35;3.88;;;10.40;79.30;;;;;;5009248;28;20599;-67
2022/10/09 07:26:19;;;;;;;7.60;3.70;;;10.40;79.20;;;;;;5004327;28;20026;-68
2022/10/09 07:28:46;;;;;;;6.45;4.18;;;10.60;79.40;;;;;;5003363;28;20106;-67
2022/10/09 07:31:12;;;;;;;5.93;3.70;;;10.50;79.50;;;;;;5002311;28;20027;-67
2022/10/09 07:33:38;;;;;;;6.07;3.72;;;10.60;79.30;;;;;;5000468;28;20085;-67
2022/10/09 07:36:05;;;;;;;9.65;4.78;;;10.70;79.10;;;;;;5004004;28;20123;-67
2022/10/09 07:38:31;;;;;;;8.45;4.30;;;10.70;78.90;;;;;;5006179;28;20031;-67
2022/10/09 07:41:05;;;;;;;7.03;3.80;;;10.70;78.90;;;;;;5005012;28;20503;-67
2022/10/09 07:43:33;;;;;;;6.38;3.50;;;10.80;79.10;;;;;;5006750;28;20029;-67
2022/10/09 07:46:00;;;;;;;10.98;4.55;;;10.80;79.60;;;;;;5003772;28;20026;-67
2022/10/09 07:48:26;;;;;;;6.70;4.55;;;10.80;78.90;;;;;;5009564;28;20030;-67
2022/10/09 07:50:52;;;;;;;10.05;4.95;;;10.90;79.00;;;;;;5005797;28;20036;-67
2022/10/09 07:53:17;;;;;;;9.23;4.65;;;10.90;79.00;;;;;;5002213;28;20500;-67
2022/10/09 07:55:45;;;;;;;9.43;4.53;;;11.00;79.00;;;;;;5010864;28;20080;-67
2022/10/09 07:58:11;;;;;;;7.93;5.20;;;11.00;78.60;;;;;;5002637;28;20030;-67
2022/10/09 08:00:36;;;;;;;7.88;4.72;;;11.00;79.30;;;;;;5012384;28;20444;-67
2022/10/09 08:03:02;;;;;;;6.82;4.32;;;11.10;78.70;;;;;;5014293;28;20057;-67
2022/10/09 08:05:28;;;;;;;5.72;3.97;;;11.30;78.50;;;;;;5009086;28;20057;-67
2022/10/09 08:07:53;;;;;;;7.88;5.18;;;11.30;78.10;;;;;;5009765;28;20029;-68
2022/10/09 08:10:19;;;;;;;9.98;5.95;;;11.40;78.20;;;;;;5008904;28;20037;-68
2022/10/09 08:12:44;;;;;;;8.93;6.05;;;11.40;78.30;;;;;;5014592;28;20030;-68
2022/10/09 08:15:10;;;;;;;11.45;6.57;;;11.40;78.10;;;;;;5013429;28;20442;-68
2022/10/09 08:17:35;;;;;;;8.35;5.70;;;11.40;78.00;;;;;;5007243;28;20059;-68
2022/10/09 08:20:01;;;;;;;6.15;4.00;;;11.40;77.80;;;;;;5008543;28;20554;-68
2022/10/09 08:22:27;;;;;;;9.38;6.53;;;11.50;77.70;;;;;;5002753;28;20304;-68
2022/10/09 08:24:58;;;;;;;13.07;6.50;;;11.60;77.60;;;;;;5001773;28;20022;-68
2022/10/09 08:27:29;;;;;;;10.55;6.45;;;11.60;77.50;;;;;;5003805;28;20030;-68
2022/10/09 08:30:19;;;;;;;11.73;7.00;;;11.70;77.60;;;;;;5004362;28;20053;-68
2022/10/09 08:32:50;;;;;;;11.30;5.75;;;11.80;77.50;;;;;;4999708;28;20049;-68
2022/10/09 08:35:22;;;;;;;8.10;5.55;;;11.90;77.20;;;;;;5010819;28;20026;-68
2022/10/09 08:37:56;;;;;;;7.75;5.63;;;11.90;76.90;;;;;;5002617;28;20454;-68
2022/10/09 08:40:50;;;;;;;13.88;7.18;;;12.00;76.80;;;;;;5005118;28;20025;-68
2022/10/09 08:43:21;;;;;;;8.60;5.53;;;12.10;76.50;;;;;;4999883;28;20022;-68
2022/10/09 08:45:51;;;;;;;9.30;5.65;;;12.20;76.20;;;;;;5008817;28;20030;-68
2022/10/09 08:48:40;;;;;;;11.40;6.25;;;12.30;76.00;;;;;;5017832;28;20028;-68
2022/10/09 08:51:35;;;;;;;9.57;5.95;;;12.30;75.70;;;;;;5001281;28;20057;-68
2022/10/09 08:54:19;;;;;;;10.80;5.95;;;12.30;75.60;;;;;;5007451;28;20025;-68
2022/10/09 08:56:52;;;;;;;8.95;6.03;;;12.40;75.50;;;;;;5027713;28;20508;-68
2022/10/09 08:59:21;;;;;;;9.88;5.32;;;12.50;75.40;;;;;;5008221;28;20112;-68
2022/10/09 09:02:01;;;;;;;11.15;6.30;;;12.50;75.10;;;;;;5005744;28;20033;-68
2022/10/09 09:04:54;;;;;;;10.95;6.68;;;12.60;75.10;;;;;;5005136;28;20385;-68
2022/10/09 09:08:01;;;;;;;9.57;5.70;;;12.70;75.00;;;;;;5005169;28;20042;-68
2022/10/09 09:10:53;;;;;;;12.40;6.95;;;12.80;74.90;;;;;;5005785;28;20030;-68
2022/10/09 09:13:37;;;;;;;10.35;5.35;;;12.80;74.80;;;;;;5004473;28;20116;-68
2022/10/09 09:16:22;;;;;;;8.30;5.25;;;12.90;74.70;;;;;;5002393;28;20089;-68
2022/10/09 09:19:11;;;;;;;7.90;5.03;;;13.00;74.50;;;;;;5000685;28;20038;-67
2022/10/09 09:21:52;;;;;;;8.80;4.90;;;13.10;74.20;;;;;;4998375;28;20035;-68
2022/10/09 09:24:43;;;;;;;9.23;5.55;;;13.10;74.00;;;;;;5004830;28;20124;-68
2022/10/09 09:27:19;;;;;;;7.47;4.60;;;13.20;73.80;;;;;;5005985;28;20032;-68
2022/10/09 09:30:02;;;;;;;7.53;4.95;;;13.30;73.50;;;;;;5008923;28;20033;-67
2022/10/09 09:32:32;;;;;;;7.00;4.75;;;13.40;73.20;;;;;;5002093;28;20037;-67
2022/10/09 09:35:18;;;;;;;10.13;5.15;;;13.50;72.90;;;;;;5004283;28;20040;-67
2022/10/09 09:37:55;;;;;;;9.93;4.85;;;13.60;72.50;;;;;;5000616;28;20022;-67
2022/10/09 09:40:28;;;;;;;11.93;5.30;;;13.60;71.80;;;;;;5006605;28;20088;-67
2022/10/09 09:42:55;;;;;;;9.95;5.32;;;13.70;71.50;;;;;;5007817;28;20109;-67
2022/10/09 09:45:25;;;;;;;8.38;4.78;;;13.80;71.30;;;;;;5010306;28;20021;-67
2022/10/09 09:48:10;;;;;;;7.32;4.75;;;13.80;71.00;;;;;;5004518;28;20089;-67
2022/10/09 09:50:41;;;;;;;6.80;4.38;;;13.90;70.50;;;;;;5007417;28;20465;-68
2022/10/09 09:53:38;;;;;;;7.90;4.30;;;14.00;70.30;;;;;;5003335;28;20048;-67
2022/10/09 09:56:07;;;;;;;8.95;4.20;;;14.10;70.10;;;;;;5005228;28;20053;-67
2022/10/09 09:58:47;;;;;;;9.60;4.43;;;14.10;69.50;;;;;;5013265;28;20021;-65
2022/10/09 10:01:42;;;;;;;7.30;3.80;;;14.10;69.20;;;;;;5006065;28;20041;-66
2022/10/09 10:04:20;;;;;;;7.97;4.07;;;14.20;69.00;;;;;;5011505;28;20555;-66
2022/10/09 10:06:54;;;;;;;9.23;4.13;;;14.30;68.90;;;;;;5003019;28;20044;-67
2022/10/09 10:09:25;;;;;;;9.32;4.80;;;14.30;68.50;;;;;;4999802;28;20057;-66
2022/10/09 10:12:04;;;;;;;9.15;4.40;;;14.40;68.00;;;;;;5007504;28;20038;-66
2022/10/09 10:14:36;;;;;;;9.00;3.83;;;14.40;68.00;;;;;;5004272;28;20048;-67
2022/10/09 10:17:05;;;;;;;7.93;4.30;;;14.50;68.10;;;;;;5005271;28;20038;-67
2022/10/09 10:19:37;;;;;;;6.47;3.90;;;14.60;68.00;;;;;;5009513;28;20022;-66
2022/10/09 10:22:26;;;;;;;10.00;4.80;;;14.70;67.60;;;;;;5007047;28;20057;-66
2022/10/09 10:24:59;;;;;;;6.45;3.42;;;14.80;66.60;;;;;;5015737;28;20026;-67
2022/10/09 10:27:43;;;;;;;6.22;4.05;;;14.80;66.20;;;;;;5011919;28;20104;-66
2022/10/09 10:30:25;;;;;;;7.40;3.85;;;14.80;65.90;;;;;;5002071;28;20477;-66
2022/10/09 10:33:20;;;;;;;3.88;2.58;;;14.90;65.90;;;;;;5004304;28;20101;-67
2022/10/09 10:36:00;;;;;;;10.10;5.20;;;15.00;66.10;;;;;;5003273;28;20033;-67
2022/10/09 10:38:41;;;;;;;8.90;4.95;;;15.10;65.60;;;;;;5009163;28;20049;-67
2022/10/09 10:41:14;;;;;;;7.82;4.10;;;15.10;65.50;;;;;;5005344;28;20137;-68
2022/10/09 10:44:06;;;;;;;5.53;3.78;;;15.20;65.60;;;;;;5006362;28;20100;-68
2022/10/09 10:47:01;;;;;;;9.45;4.80;;;15.20;65.70;;;;;;5005721;28;20033;-68
2022/10/09 10:49:33;;;;;;;7.57;4.13;;;15.40;65.50;;;;;;5010260;28;20025;-67
2022/10/09 10:52:09;;;;;;;5.38;3.25;;;15.50;65.10;;;;;;5003442;28;20096;-67
2022/10/09 10:54:48;;;;;;;7.50;3.97;;;15.60;64.60;;;;;;4999429;28;20029;-68
2022/10/09 10:57:37;;;;;;;7.45;3.42;;;15.50;63.20;;;;;;5005177;28;20164;-68
2022/10/09 11:00:13;;;;;;;7.07;3.55;;;15.50;62.60;;;;;;5004879;28;20033;-68
2022/10/09 11:02:59;;;;;;;5.43;3.17;;;15.40;62.60;;;;;;5006870;28;20050;-68
2022/10/09 11:05:37;;;;;;;6.00;3.90;;;15.50;63.10;;;;;;5003991;28;20084;-68
2022/10/09 11:08:58;;;;;;;6.18;3.40;;;15.60;63.10;;;;;;5003500;28;20033;-68
2022/10/09 11:11:49;;;;;;;6.00;3.40;;;15.80;62.70;;;;;;5003061;28;20045;-68
2022/10/09 11:15:01;;;;;;;6.75;3.67;;;15.80;62.40;;;;;;5003333;28;20036;-68
2022/10/09 11:17:42;;;;;;;5.47;3.15;;;15.70;62.10;;;;;;5002242;28;20030;-67
2022/10/09 11:20:47;;;;;;;8.02;4.00;;;15.80;62.50;;;;;;5006485;28;20037;-67
2022/10/09 11:23:32;;;;;;;7.50;3.30;;;15.90;62.20;;;;;;5005560;28;20026;-68
2022/10/09 11:26:19;;;;;;;5.55;2.72;;;16.00;61.70;;;;;;5007587;28;20049;-67
2022/10/09 11:29:14;;;;;;;6.03;3.42;;;16.00;61.70;;;;;;5001109;28;20033;-67
2022/10/09 11:31:48;;;;;;;6.03;3.20;;;16.10;60.90;;;;;;5001951;28;20037;-67
2022/10/09 11:34:29;;;;;;;5.28;3.17;;;16.20;61.00;;;;;;5003515;28;20030;-67
2022/10/09 11:36:59;;;;;;;9.63;3.15;;;16.20;60.80;;;;;;5004677;28;20038;-67
2022/10/09 11:39:35;;;;;;;5.57;2.88;;;16.30;60.70;;;;;;5005789;28;20036;-67
2022/10/09 11:42:04;;;;;;;8.10;3.30;;;16.40;60.10;;;;;;5015607;28;20018;-67
2022/10/09 11:44:57;;;;;;;5.88;3.35;;;16.50;60.20;;;;;;5004214;28;20022;-67
2022/10/09 11:47:38;;;;;;;5.78;2.85;;;16.50;59.60;;;;;;5005617;28;20033;-67
2022/10/09 11:50:18;;;;;;;6.30;3.10;;;16.60;59.10;;;;;;5001880;28;20034;-67
2022/10/09 11:53:10;;;;;;;6.30;2.83;;;16.60;59.10;;;;;;5000367;28;20559;-67
2022/10/09 11:55:36;;;;;;;4.47;3.00;;;16.70;59.50;;;;;;5004491;28;20037;-67
2022/10/09 11:58:24;;;;;;;4.60;3.15;;;16.70;59.40;;;;;;5004013;28;20088;-67
2022/10/09 12:00:55;;;;;;;6.90;3.45;;;16.80;58.40;;;;;;4999263;28;20481;-68
2022/10/09 12:03:28;;;;;;;3.28;2.63;;;16.80;58.20;;;;;;5000487;28;20813;-67
2022/10/09 12:06:03;;;;;;;4.93;2.65;;;17.00;58.40;;;;;;5002663;28;20022;-68
2022/10/09 12:08:29;;;;;;;5.40;2.50;;;17.10;58.40;;;;;;5000037;28;20061;-66
2022/10/09 12:11:17;;;;;;;4.57;2.70;;;17.30;57.70;;;;;;5007096;28;20034;-66
2022/10/09 12:13:49;;;;;;;4.35;2.38;;;17.20;56.60;;;;;;4999400;28;20034;-66
2022/10/09 12:16:35;;;;;;;4.57;2.38;;;17.40;57.10;;;;;;5000010;28;20030;-66
2022/10/09 12:19:22;;;;;;;3.45;2.30;;;17.60;56.80;;;;;;5003155;28;20057;-66
2022/10/09 12:21:55;;;;;;;4.32;2.40;;;17.60;56.20;;;;;;5010188;28;20030;-66
2022/10/09 12:24:27;;;;;;;4.55;2.50;;;17.50;55.50;;;;;;5004079;28;20440;-66
2022/10/09 12:26:54;;;;;;;;;;;17.40;55.50;;;;;;5003098;28;20029;-66
2022/10/09 12:29:45;;;;;;;3.40;2.03;;;17.40;55.60;;;;;;5004036;28;20306;-66
2022/10/09 12:32:22;;;;;;;5.40;2.60;;;17.40;55.30;;;;;;5001224;28;20133;-66
2022/10/09 12:34:49;;;;;;;3.55;1.98;;;17.40;55.10;;;;;;5004189;28;20044;-66
2022/10/09 12:37:20;;;;;;;4.47;2.22;;;17.60;55.50;;;;;;5015249;28;20076;-67
2022/10/09 12:39:48;;;;;;;4.80;2.17;;;17.80;55.00;;;;;;5011411;28;20024;-66
2022/10/09 12:42:22;;;;;;;5.53;2.80;;;17.70;54.70;;;;;;5015003;28;20029;-66
2022/10/09 12:44:51;;;;;;;3.47;2.00;;;17.70;54.30;;;;;;5017545;28;20164;-66
2022/10/09 12:47:25;;;;;;;3.38;1.88;;;17.70;54.20;;;;;;5019753;28;20100;-67
2022/10/09 12:49:56;;;;;;;4.97;2.30;;;17.70;54.40;;;;;;5005556;28;20057;-66
2022/10/09 12:52:22;;;;;;;3.87;1.83;;;17.90;54.90;;;;;;5009360;28;20121;-66
2022/10/09 12:54:47;;;;;;;4.25;2.30;;;18.00;53.90;;;;;;5008433;28;20347;-66
2022/10/09 12:57:15;;;;;;;5.88;2.20;;;18.10;53.80;;;;;;5008262;28;20026;-67
2022/10/09 12:59:43;;;;;;;3.25;1.67;;;18.10;53.70;;;;;;5003343;28;20034;-66
2022/10/09 13:02:11;;;;;;;3.72;1.50;;;18.20;53.70;;;;;;5003252;28;20397;-66
2022/10/09 13:04:37;;;;;;;2.95;1.83;;;18.40;53.40;;;;;;5015066;28;20026;-67
2022/10/09 13:07:13;;;;;;;4.43;1.70;;;18.50;51.60;;;;;;5006696;28;20033;-67
2022/10/09 13:09:39;;;;;;;3.83;1.60;;;18.50;51.60;;;;;;5002636;28;20448;-66
2022/10/09 13:12:23;;;;;;;3.85;1.75;;;18.50;51.60;;;;;;5007178;28;20105;-66
2022/10/09 13:15:00;;;;;;;2.95;1.73;;;18.50;51.50;;;;;;5008173;28;20029;-66